F/V Manathia — FGSL — position and weather

sailwx.info

Track history (hours):
 
Tides and Currents Weather Stations Pressure Air Temp Water Temp Dewpoint Dewpoint Depression Visibility Wind Speed Wind Dir Waves Ship Positions

F/V Manathia

Last reported at 2017-Feb-17 14:33 UTC. Time now 2017-Feb-20 14:03 UTC.
Position N 47°48' W 004°17'.

Length 16 m.

Type: Fishing. MMSI: 228258000.

Date/timePositionNaut miles runAvg speedWind from/ knotsBaromVisibWave heightAir tempDewpointWater temp
2017-Feb-17 14:33N 47°48' W 004°17'3 3.2
2017-Feb-17 13:30N 47°46' W 004°21'12 3.8
2017-Feb-17 10:21N 47°48' W 004°39'1 0.9
2017-Feb-17 09:33N 47°48' W 004°40'1 0.5
2017-Feb-17 08:33N 47°48' W 004°40'0 0.2
2017-Feb-17 07:12N 47°48' W 004°40'11 2.2
2017-Feb-17 02:26N 47°44' W 004°55'0 0.1
2017-Feb-17 00:23N 47°44' W 004°55'3 1.8
2017-Feb-16 22:32N 47°41' W 004°54'0 0.2
2017-Feb-16 20:33N 47°41' W 004°54'5 3.3
2017-Feb-16 19:10N 47°40' W 004°48'2 3.4
2017-Feb-16 18:33N 47°41' W 004°46'9 0.9
2017-Feb-16 08:26N 47°48' W 004°38'4 3.0
2017-Feb-16 07:14N 47°49' W 004°33'4 2.1
2017-Feb-16 05:23N 47°47' W 004°28'6 6.9
2017-Feb-16 04:33N 47°43' W 004°22'4 4.0
2017-Feb-16 03:30N 47°46' W 004°17'36 0.8
2017-Feb-14 08:32N 47°21' W 004°54'20 6.4
2017-Feb-14 05:27N 47°35' W 004°34'11 7.7
2017-Feb-14 04:04N 47°43' W 004°24'  
Track history (hours):
 
Tides and Currents Weather Stations Pressure Air Temp Water Temp Dewpoint Dewpoint Depression Visibility Wind Speed Wind Dir Waves Ship Positions

F/V Manathia

Last reported at 2017-Feb-17 14:33 UTC. Time now 2017-Feb-20 14:03 UTC.
Position N 47°48' W 004°17'.

Length 16 m.

Type: Fishing. MMSI: 228258000.

Date/timePositionNaut miles runAvg speedWind from/ knotsBaromVisibWave heightAir tempDewpointWater temp
2017-Feb-17 14:33N 47°48' W 004°17'3 3.2
2017-Feb-17 13:30N 47°46' W 004°21'12 3.8
2017-Feb-17 10:21N 47°48' W 004°39'1 0.9
2017-Feb-17 09:33N 47°48' W 004°40'1 0.5
2017-Feb-17 08:33N 47°48' W 004°40'0 0.2
2017-Feb-17 07:12N 47°48' W 004°40'11 2.2
2017-Feb-17 02:26N 47°44' W 004°55'0 0.1
2017-Feb-17 00:23N 47°44' W 004°55'3 1.8
2017-Feb-16 22:32N 47°41' W 004°54'0 0.2
2017-Feb-16 20:33N 47°41' W 004°54'5 3.3
2017-Feb-16 19:10N 47°40' W 004°48'2 3.4
2017-Feb-16 18:33N 47°41' W 004°46'9 0.9
2017-Feb-16 08:26N 47°48' W 004°38'4 3.0
2017-Feb-16 07:14N 47°49' W 004°33'4 2.1
2017-Feb-16 05:23N 47°47' W 004°28'6 6.9
2017-Feb-16 04:33N 47°43' W 004°22'4 4.0
2017-Feb-16 03:30N 47°46' W 004°17'36 0.8
2017-Feb-14 08:32N 47°21' W 004°54'20 6.4
2017-Feb-14 05:27N 47°35' W 004°34'11 7.7
2017-Feb-14 04:04N 47°43' W 004°24'  

Dump ship's entire track history